Latest Weather Observations for Hobart Airport

IDT60901

Issued at 7:21 pm EST Tuesday 7 July 2015 (issued every 10 minutes, with the page automatically refreshed every 10 minutes)

About weather observations | Map of Hobart area stations | Latest observations for Hobart area | Other Formats
Station Details ID: 094008 Name: HOBART AIRPORT Lat: -42.83 Lon: 147.50 Height: 4.0 m
Data from the previous 72 hours. | See also: Recent months at Hobart Airport
Date/Time
EST
Tmp

°C
App
Tmp
°C
Dew
Point
°C
Rel
Hum
%
Delta-T

°C
Wind Press
QNH
hPa
Press
MSL
hPa
Rain
since
9 am
mm
Dir
 
Spd
km/h
Gust
km/h
Spd
kts
Gust
kts
07/07:00pm 6.4 3.7 3.8 83 1.1 NW 7 9 4 5 1027.7 1027.8 0.0
07/06:30pm 6.9 5.5 3.6 79 1.4 CALM 0 4 0 2 1027.5 1027.6 0.0
07/05:30pm 7.2 4.5 2.6 72 1.9 SW 6 7 3 4 1027.2 1027.3 0.0
07/05:00pm 7.5 4.7 3.2 74 1.8 S 7 7 4 4 1027.0 1027.1 0.0
07/04:30pm 7.9 4.9 2.3 68 2.3 S 7 9 4 5 1026.7 1026.8 0.0
07/04:00pm 8.0 4.7 2.7 69 2.2 SE 9 13 5 7 1026.6 1026.7 0.0
07/03:30pm 8.5 5.1 1.9 63 2.7 SSE 9 13 5 7 1026.4 1026.5 0.0
07/03:00pm 8.6 5.6 1.8 62 2.8 SE 7 9 4 5 1026.1 1026.2 0.0
07/02:30pm 8.3 4.8 1.4 62 2.8 SE 9 11 5 6 1025.8 1025.9 0.0
07/02:00pm 7.7 4.3 2.1 67 2.3 SSE 9 13 5 7 1025.9 1026.0 0.0
07/01:30pm 8.4 5.4 2.1 64 2.6 NNW 7 11 4 6 1025.8 1025.9 0.0
07/01:00pm 7.5 4.8 2.4 70 2.1 W 6 9 3 5 1025.9 1026.0 0.0
07/12:30pm 8.5 4.6 3.3 70 2.2 NNW 13 15 7 8 1026.1 1026.2 0.0
07/12:00pm 7.5 3.2 3.2 74 1.8 NNW 15 19 8 10 1026.3 1026.4 0.0
07/11:00am 6.3 1.2 3.2 80 1.3 NW 19 22 10 12 1026.7 1026.8 0.0
07/10:30am 6.1 1.5 3.5 83 1.1 NW 17 20 9 11 1026.6 1026.7 0.0
07/10:00am 5.0 0.3 3.3 89 0.7 NW 17 20 9 11 1026.3 1026.4 0.0
07/09:30am 4.7 0.0 3.0 89 0.7 NW 17 20 9 11 1026.0 1026.1 0.0
07/09:00am 4.1 -0.3 2.9 92 0.5 NW 15 19 8 10 1025.9 1026.0 2.4
07/08:30am 4.0 -0.8 2.8 92 0.5 NW 17 20 9 11 1025.6 1025.7 2.4
07/08:00am 3.9 -0.9 2.6 91 0.5 NW 17 19 9 10 1025.3 1025.4 2.4
07/07:30am 4.1 -0.3 2.6 90 0.6 NW 15 19 8 10 1024.9 1025.0 2.0
07/07:00am 3.7 -0.9 1.6 86 0.8 NW 15 20 8 11 1024.6 1024.7 2.0
07/06:30am 3.1 -1.5 1.8 91 0.5 NW 15 20 8 11 1024.1 1024.2 2.0
07/05:30am 3.6 -0.8 2.6 93 0.4 NW 15 19 8 10 1023.3 1023.4 1.6
07/05:00am 4.1 0.5 2.9 92 0.5 NW 11 15 6 8 1023.0 1023.1 1.6
07/04:52am 4.0 0.8 2.8 92 0.5 NW 9 13 5 7 1023.0 1023.1 1.6
07/04:30am 4.3 0.6 2.3 87 0.8 WNW 11 13 6 7 1023.1 1023.2 1.0
07/04:00am 4.4 0.7 2.1 85 0.9 WNW 11 13 6 7 1022.7 1022.8 0.8
07/03:30am 4.2 0.0 1.9 85 0.9 W 13 15 7 8 1022.6 1022.7 0.8
07/03:00am 5.3 1.9 2.1 80 1.3 SW 9 11 5 6 1022.8 1022.9 0.6
07/02:00am 5.4 0.8 1.6 76 1.5 SW 15 17 8 9 1022.4 1022.5 0.4
07/01:30am 5.3 1.4 1.2 75 1.6 SW 11 17 6 9 1022.0 1022.1 0.4
07/01:00am 5.6 1.3 0.7 71 1.9 SW 13 17 7 9 1021.9 1022.0 0.4
07/12:30am 5.8 1.8 0.7 70 2.0 SSW 11 15 6 8 1022.0 1022.1 0.4
 
Date/Time
EST
Tmp

°C
App
Tmp
°C
Dew
Point
°C
Rel
Hum
%
Delta-T

°C
Wind Press
QNH
hPa
Press
MSL
hPa
Rain
since
9 am
mm
Dir
 
Spd
km/h
Gust
km/h
Spd
kts
Gust
kts
06/11:30pm 5.5 0.7 0.0 68 2.1 SW 15 19 8 10 1021.9 1022.0 0.4
06/11:00pm 5.6 0.9 0.7 71 1.9 SW 15 17 8 9 1021.8 1021.9 0.4
06/10:30pm 5.4 0.6 -0.1 67 2.1 SW 15 19 8 10 1021.6 1021.7 0.4
06/10:00pm 5.8 0.6 0.4 68 2.1 SW 17 20 9 11 1021.4 1021.5 0.4
06/09:30pm 5.9 1.6 1.1 71 1.9 SW 13 19 7 10 1021.3 1021.4 0.4
06/09:00pm 4.9 1.1 1.9 81 1.2 SW 11 13 6 7 1021.1 1021.2 0.4
06/08:30pm 5.4 0.2 2.2 80 1.3 SW 19 28 10 15 1021.0 1021.1 0.4
06/08:00pm 5.1 0.4 1.0 75 1.6 SW 15 19 8 10 1020.8 1020.9 0.4
06/07:30pm 5.2 1.0 1.4 76 1.5 SW 13 17 7 9 1020.5 1020.6 0.4
06/07:00pm 5.7 1.1 1.7 75 1.6 SSW 15 19 8 10 1020.2 1020.3 0.2
06/06:30pm 5.4 0.6 0.5 71 1.9 SSW 15 19 8 10 1019.8 1019.9 0.2
06/06:00pm 6.2 1.0 0.3 66 2.3 S 17 24 9 13 1019.5 1019.6 0.2
06/05:30pm 6.7 1.2 0.6 65 2.4 SSE 19 26 10 14 1019.2 1019.3 0.2
06/05:00pm 7.5 2.0 -1.9 51 3.5 S 17 22 9 12 1018.8 1018.9 0.2
06/04:30pm 7.4 2.6 -2.4 50 3.6 SSW 13 17 7 9 1018.6 1018.7 0.2
06/04:00pm 7.2 2.0 -2.7 49 3.6 S 15 19 8 10 1018.4 1018.5 0.2
06/03:30pm 7.8 2.3 -1.8 50 3.6 S 17 26 9 14 1018.1 1018.2 0.2
06/03:00pm 8.1 3.2 -0.4 55 3.3 S 15 20 8 11 1017.8 1017.9 0.2
06/02:30pm 8.1 2.9 0.0 56 3.2 SSE 17 26 9 14 1017.6 1017.7 0.2
06/02:00pm 8.3 1.7 -0.1 55 3.3 SSE 24 30 13 16 1017.5 1017.6 0.2
06/01:30pm 8.3 2.1 2.3 66 2.5 SSE 24 32 13 17 1017.4 1017.5 0.2
06/01:00pm 8.5 3.6 1.7 62 2.8 S 17 22 9 12 1017.4 1017.5 0.2
06/12:30pm 7.7 3.3 2.7 70 2.1 SW 15 20 8 11 1017.5 1017.6 0.2
06/12:00pm 8.4 3.5 2.1 64 2.6 SSW 17 32 9 17 1017.7 1017.8 0.2
06/11:30am 8.0 3.7 1.1 62 2.8 S 13 17 7 9 1017.7 1017.8 0.2
06/11:00am 6.5 2.7 3.7 82 1.2 SW 13 17 7 9 1018.1 1018.2 0.2
06/10:30am 6.5 -0.4 2.6 76 1.6 S 28 33 15 18 1018.2 1018.3 0.0
06/10:22am 7.0 2.2 2.7 74 1.8 S 17 33 9 18 1018.0 1018.1 0.0
06/10:00am 6.3 3.1 3.2 80 1.3 SSW 9 13 5 7 1017.8 1017.9 0.0
06/09:30am 6.1 2.2 3.2 82 1.2 S 13 17 7 9 1017.6 1017.7 0.0
06/09:00am 6.1 1.3 2.4 77 1.5 S 17 24 9 13 1017.4 1017.5 0.2
06/08:30am 6.6 3.0 0.5 65 2.4 SSW 9 11 5 6 1017.1 1017.2 0.2
06/08:00am 6.1 2.6 1.0 70 2.0 SSW 9 15 5 8 1017.0 1017.1 0.2
06/07:30am 6.1 1.8 1.3 71 1.9 SSW 13 19 7 10 1016.8 1016.9 0.2
06/07:00am 6.2 2.3 0.9 69 2.1 S 11 19 6 10 1016.6 1016.7 0.2
06/06:30am 6.5 3.0 1.2 69 2.1 S 9 13 5 7 1016.5 1016.6 0.2
06/06:00am 6.4 3.5 2.5 76 1.6 SE 7 9 4 5 1016.2 1016.3 0.2
06/05:30am 6.6 3.3 2.7 76 1.6 S 9 13 5 7 1016.0 1016.1 0.2
06/05:00am 6.7 2.2 2.3 73 1.8 SSE 15 24 8 13 1015.9 1016.0 0.2
06/04:30am 6.9 2.4 2.0 71 2.0 SE 15 24 8 13 1015.6 1015.7 0.2
06/04:00am 6.8 4.6 3.2 78 1.5 S 4 9 2 5 1015.4 1015.5 0.2
06/03:30am 6.6 3.9 3.5 80 1.3 SW 7 7 4 4 1015.4 1015.5 0.2
06/03:00am 6.5 5.2 4.2 85 1.0 CALM 0 0 0 0 1015.5 1015.6 0.2
06/02:30am 6.3 5.1 4.7 89 0.7 CALM 0 0 0 0 1015.3 1015.4 0.2
06/02:00am 6.3 4.7 4.7 89 0.7 SE 2 7 1 4 1015.3 1015.4 0.2
06/01:30am 6.5 4.2 4.7 88 0.8 SSW 6 7 3 4 1015.3 1015.4 0.2
06/01:00am 6.5 4.1 5.1 91 0.6 SW 7 7 4 4 1015.3 1015.4 0.2
06/12:30am 6.8 4.3 5.0 88 0.8 ESE 7 13 4 7 1015.5 1015.6 0.0
06/12:20am 6.8 5.3 5.0 88 0.8 ESE 2 11 1 6 1015.5 1015.6 0.0
06/12:00am 6.6 4.7 5.0 89 0.7 E 4 7 2 4 1015.6 1015.7 0.0
 
Date/Time
EST
Tmp

°C
App
Tmp
°C
Dew
Point
°C
Rel
Hum
%
Delta-T

°C
Wind Press
QNH
hPa
Press
MSL
hPa
Rain
since
9 am
mm
Dir
 
Spd
km/h
Gust
km/h
Spd
kts
Gust
kts
05/11:47pm 6.5 4.1 5.1 91 0.6 ESE 7 9 4 5 1015.6 1015.7 0.0
05/11:30pm 6.6 3.9 5.5 93 0.5 SE 9 15 5 8 1015.7 1015.8 0.0
05/11:12pm 6.7 3.2 5.6 93 0.5 ESE 13 19 7 10 1015.7 1015.8 0.0
05/11:00pm 6.8 3.7 5.4 91 0.6 SE 11 17 6 9 1015.6 1015.7 0.0
05/10:30pm 7.5 4.7 5.0 84 1.1 SE 9 17 5 9 1015.6 1015.7 0.0
05/10:18pm 7.3 5.1 5.5 88 0.8 SE 6 9 3 5 1015.7 1015.8 0.0
05/10:00pm 7.4 5.1 5.6 88 0.8 SE 7 9 4 5 1015.6 1015.7 0.0
05/09:49pm 7.4 4.7 5.6 88 0.8 SSE 9 13 5 7 1015.6 1015.7 0.0
05/09:30pm 7.6 4.9 5.4 86 1.0 SSE 9 11 5 6 1015.6 1015.7 0.0
05/09:00pm 7.8 3.9 5.3 84 1.1 SSE 15 19 8 10 1015.6 1015.7 0.0
05/08:30pm 7.3 4.7 4.0 79 1.4 W 7 7 4 4 1015.4 1015.5 0.0
05/08:00pm 8.0 5.0 4.1 76 1.7 S 9 11 5 6 1015.2 1015.3 0.0
05/07:30pm 8.3 5.3 3.9 74 1.9 S 9 11 5 6 1015.1 1015.2 0.0
05/07:00pm 7.8 6.5 4.1 77 1.6 CALM 0 0 0 0 1015.2 1015.3 0.0
05/06:30pm 7.8 5.1 3.9 76 1.7 S 7 7 4 4 1014.9 1015.0 0.0
05/06:00pm 7.7 4.7 4.0 77 1.6 S 9 11 5 6 1014.8 1014.9 0.0
05/05:30pm 8.1 4.7 4.2 76 1.7 S 11 13 6 7 1014.5 1014.6 0.0
05/05:00pm 8.1 4.5 3.2 71 2.1 S 11 13 6 7 1014.2 1014.3 0.0
05/04:30pm 8.6 5.4 3.2 69 2.3 S 9 11 5 6 1014.0 1014.1 0.0
05/04:00pm 9.1 5.9 3.3 67 2.5 S 9 11 5 6 1014.0 1014.1 0.0
05/03:30pm 9.5 6.4 3.5 66 2.6 SSE 9 11 5 6 1013.8 1013.9 0.0
05/03:00pm 9.4 6.3 3.7 67 2.5 SE 9 13 5 7 1013.8 1013.9 0.0
05/02:30pm 9.7 6.2 3.5 65 2.7 SE 11 15 6 8 1013.6 1013.7 0.0
05/02:00pm 9.9 6.5 4.0 67 2.6 SE 11 15 6 8 1013.7 1013.8 0.0
05/01:30pm 11.1 7.8 2.2 54 3.8 SSE 9 17 5 9 1013.7 1013.8 0.0
05/01:00pm 10.6 7.7 2.7 58 3.4 SE 7 11 4 6 1013.7 1013.8 0.0
05/12:30pm 10.4 7.8 3.3 61 3.1 NNW 6 7 3 4 1013.8 1013.9 0.0
05/12:00pm 9.8 7.0 3.3 64 2.8 NW 7 9 4 5 1014.0 1014.1 0.0
05/11:30am 9.2 5.7 3.7 68 2.4 NW 11 13 6 7 1014.2 1014.3 0.0
05/11:00am 8.9 5.3 2.8 65 2.6 NW 11 15 6 8 1014.5 1014.6 0.0
05/10:30am 8.6 4.6 3.0 68 2.4 NW 13 15 7 8 1014.7 1014.8 0.0
05/10:00am 7.9 4.2 2.4 68 2.3 NW 11 13 6 7 1014.6 1014.7 0.0
05/09:30am 7.4 2.9 2.0 68 2.2 NW 15 17 8 9 1014.6 1014.7 0.0
05/09:00am 6.9 2.8 2.0 71 2.0 NW 13 15 7 8 1014.5 1014.6 0.0
05/08:30am 6.7 2.9 2.0 72 1.9 NW 11 13 6 7 1014.5 1014.6 0.0
05/08:00am 7.0 2.4 1.6 68 2.2 NW 15 15 8 8 1014.2 1014.3 0.0
05/07:30am 7.0 2.4 1.8 69 2.1 NW 15 17 8 9 1013.9 1014.0 0.0
05/07:00am 7.4 3.2 1.5 66 2.4 NW 13 15 7 8 1013.8 1013.9 0.0
05/06:30am 7.5 3.3 1.6 66 2.4 NW 13 15 7 8 1013.7 1013.8 0.0
05/06:00am 8.3 4.0 1.2 61 2.9 NNW 13 17 7 9 1013.4 1013.5 0.0
05/05:30am 8.4 4.5 1.3 61 2.9 NNW 11 17 6 9 1013.4 1013.5 0.0
05/05:00am 9.0 4.7 0.9 57 3.3 NNW 13 24 7 13 1013.2 1013.3 0.0
05/04:30am 8.7 4.7 0.8 57 3.2 NNW 11 15 6 8 1013.2 1013.3 0.0
05/04:00am 8.3 4.0 0.9 59 3.0 NNW 13 17 7 9 1013.4 1013.5 0.0
05/03:30am 8.1 3.8 1.2 62 2.8 NW 13 15 7 8 1013.5 1013.6 0.0
05/03:00am 8.7 3.6 0.8 57 3.2 NNW 17 24 9 13 1013.8 1013.9 0.0
05/02:30am 8.4 4.1 0.7 58 3.1 NNW 13 19 7 10 1013.9 1014.0 0.0
05/02:00am 8.4 3.6 0.4 57 3.2 NNW 15 24 8 13 1014.1 1014.2 0.0
05/01:30am 8.6 3.1 0.3 56 3.3 NNW 19 26 10 14 1013.7 1013.8 0.0
05/01:00am 8.6 3.5 0.7 57 3.2 NNW 17 35 9 19 1013.7 1013.8 0.0
05/12:30am 8.5 4.2 0.8 58 3.1 NW 13 19 7 10 1013.8 1013.9 0.0
05/12:00am 8.4 3.7 1.0 59 3.0 NNW 15 24 8 13 1013.8 1013.9 0.0
 
Date/Time
EST
Tmp

°C
App
Tmp
°C
Dew
Point
°C
Rel
Hum
%
Delta-T

°C
Wind Press
QNH
hPa
Press
MSL
hPa
Rain
since
9 am
mm
Dir
 
Spd
km/h
Gust
km/h
Spd
kts
Gust
kts
04/11:30pm 8.1 3.8 1.2 62 2.8 NW 13 17 7 9 1014.0 1014.1 0.0
04/11:00pm 8.5 4.5 0.8 58 3.1 NNW 11 17 6 9 1013.9 1014.0 0.0
04/10:30pm 8.1 4.6 1.2 62 2.8 NNW 9 13 5 7 1014.0 1014.1 0.0
04/10:00pm 8.3 4.5 1.5 62 2.8 NNW 11 15 6 8 1014.0 1014.1 0.0
04/09:30pm 7.6 3.8 1.7 66 2.4 NNW 11 15 6 8 1014.0 1014.1 0.0
04/09:00pm 8.6 4.0 1.5 61 2.9 NNW 15 22 8 12 1014.1 1014.2 0.0
04/08:30pm 9.0 4.5 2.1 62 2.9 NW 15 26 8 14 1014.0 1014.1 0.0
04/08:00pm 8.9 4.3 1.6 60 3.0 NW 15 22 8 12 1013.8 1013.9 0.0
04/07:30pm 8.6 4.3 1.0 59 3.1 NW 13 17 7 9 1013.8 1013.9 0.0

Latest Capital City Observations: Canberra | Sydney | Melbourne | Brisbane | Adelaide | Perth | Hobart | Darwin

Other Formats:

Comma delimited format used in spreadsheet applications
http://www.bom.gov.au/fwo/IDT60901/IDT60901.94975.axf

JavaScript Object Notation format (JSON) in row-major order
http://www.bom.gov.au/fwo/IDT60901/IDT60901.94975.json